Time;durP1;ratioP1;P1;durP2;ratioP2;P2;SDS_P1;SDS_P2;PMS_P1;PMS_P2;Temp;Humidity;BMP_temperature;BMP_pressure;BME280_temperature;BME280_humidity;BME280_pressure;Samples;Min_cycle;Max_cycle;Signal;HPM_P1;HPM_P2
2023/10/03 00:00:31;;;;;;;42.22;22.70;;;;;;;;;;5028391;28;20033;-71
2023/10/03 00:02:57;;;;;;;48.53;21.20;;;;;;;;;;5030692;28;20121;-71
2023/10/03 00:05:28;;;;;;;43.90;22.00;;;;;;;;;;5014006;28;20090;-71
2023/10/03 00:07:54;;;;;;;44.35;21.70;;;;;;;;;;5030536;28;20040;-71
2023/10/03 00:10:20;;;;;;;41.95;20.52;;;;;;;;;;5025370;28;20044;-72
2023/10/03 00:12:48;;;;;;;45.05;21.02;;;;;;;;;;5030918;28;20047;-71
2023/10/03 00:15:18;;;;;;;42.28;19.67;;;;;;;;;;5028735;28;20099;-71
2023/10/03 00:17:47;;;;;;;40.77;19.97;;;;;;;;;;5030511;28;20136;-71
2023/10/03 00:20:16;;;;;;;43.22;20.15;;;;;;;;;;5009624;28;20117;-71
2023/10/03 00:22:42;;;;;;;41.30;20.05;;;;;;;;;;5013494;28;20387;-71
2023/10/03 00:25:18;;;;;;;35.92;18.85;;;;;;;;;;5032048;28;20100;-71
2023/10/03 00:27:46;;;;;;;41.92;20.80;;;;;;;;;;5009078;28;20041;-71
2023/10/03 00:30:12;;;;;;;40.03;20.33;;;;;;;;;;5027844;28;20044;-71
2023/10/03 00:32:41;;;;;;;39.28;19.27;;;;;;;;;;5031606;28;20439;-71
2023/10/03 00:35:08;;;;;;;41.25;19.95;;;;;;;;;;5031205;28;20127;-71
2023/10/03 00:37:35;;;;;;;37.85;19.17;;;;;;;;;;5009823;28;20444;-71
2023/10/03 00:40:14;;;;;;;41.65;20.45;;;;;;;;;;5029184;28;20057;-71
2023/10/03 00:42:42;;;;;;;35.78;19.10;;;;;;;;;;5093297;23;20413;-68
2023/10/03 00:45:10;;;;;;;42.90;19.77;;;;;;;;;;5085981;28;20139;-68
2023/10/03 00:47:36;;;;;;;44.72;19.70;;;;;;;;;;5082147;28;20040;-68
2023/10/03 00:50:04;;;;;;;40.40;19.58;;;;;;;;;;5068817;28;20040;-68
2023/10/03 00:52:32;;;;;;;40.10;20.05;;;;;;;;;;5070370;28;20502;-68
2023/10/03 00:55:00;;;;;;;42.00;19.73;;;;;;;;;;5081908;28;20082;-68
2023/10/03 00:57:26;;;;;;;41.78;19.20;;;;;;;;;;5082134;28;20036;-68
2023/10/03 00:59:56;;;;;;;37.33;18.63;;;;;;;;;;5070519;28;20507;-68
2023/10/03 01:02:22;;;;;;;39.30;19.80;;;;;;;;;;5078754;28;20087;-68
2023/10/03 01:04:49;;;;;;;39.22;18.65;;;;;;;;;;5081402;28;20033;-68
2023/10/03 01:07:15;;;;;;;37.95;18.73;;;;;;;;;;5076688;28;20068;-68
2023/10/03 01:09:41;;;;;;;40.88;19.33;;;;;;;;;;5069831;28;20927;-68
2023/10/03 01:12:07;;;;;;;41.38;19.52;;;;;;;;;;5051507;28;20173;-68
2023/10/03 01:14:37;;;;;;;36.45;17.75;;;;;;;;;;5074327;28;20127;-68
2023/10/03 01:17:06;;;;;;;37.38;17.60;;;;;;;;;;5070437;28;20052;-68
2023/10/03 01:19:32;;;;;;;39.28;17.38;;;;;;;;;;5069548;28;20037;-68
2023/10/03 01:21:59;;;;;;;42.85;19.08;;;;;;;;;;5067934;28;20036;-68
2023/10/03 01:24:25;;;;;;;40.95;18.55;;;;;;;;;;5070601;28;20390;-68
2023/10/03 01:26:52;;;;;;;38.00;18.35;;;;;;;;;;5075914;28;20028;-68
2023/10/03 01:29:19;;;;;;;38.63;18.05;;;;;;;;;;5069919;28;20051;-68
2023/10/03 01:31:46;;;;;;;40.67;18.45;;;;;;;;;;5072608;28;20040;-68
2023/10/03 01:34:12;;;;;;;38.92;17.65;;;;;;;;;;5070705;28;20513;-68
2023/10/03 01:36:40;;;;;;;34.58;17.17;;;;;;;;;;5059722;28;20076;-68
2023/10/03 01:39:06;;;;;;;40.83;17.55;;;;;;;;;;5073596;28;20145;-68
2023/10/03 01:41:34;;;;;;;38.63;17.00;;;;;;;;;;5069763;28;20041;-68
2023/10/03 01:44:00;;;;;;;35.85;17.23;;;;;;;;;;5075758;28;20100;-68
2023/10/03 01:46:26;;;;;;;35.30;17.13;;;;;;;;;;5077795;28;20111;-68
2023/10/03 01:48:52;;;;;;;36.58;17.70;;;;;;;;;;5068480;28;20043;-68
2023/10/03 01:51:20;;;;;;;35.95;17.80;;;;;;;;;;5074061;28;20036;-68
2023/10/03 01:53:46;;;;;;;39.85;18.17;;;;;;;;;;5088975;28;20047;-68
2023/10/03 01:56:12;;;;;;;43.38;17.92;;;;;;;;;;5082601;28;20040;-68
2023/10/03 01:58:38;;;;;;;38.53;16.75;;;;;;;;;;5073931;28;20036;-68
2023/10/03 02:01:04;;;;;;;37.65;16.63;;;;;;;;;;5069354;28;20043;-68
2023/10/03 02:03:32;;;;;;;35.47;17.58;;;;;;;;;;5072918;28;20040;-68
2023/10/03 02:05:58;;;;;;;36.65;16.08;;;;;;;;;;5057739;28;20048;-68
2023/10/03 02:08:25;;;;;;;36.50;15.63;;;;;;;;;;5072757;28;20543;-68
2023/10/03 02:10:52;;;;;;;35.83;17.15;;;;;;;;;;5077137;28;20119;-68
2023/10/03 02:13:18;;;;;;;35.20;16.95;;;;;;;;;;5075245;28;20575;-68
2023/10/03 02:15:45;;;;;;;41.67;16.73;;;;;;;;;;5078845;28;20490;-68
2023/10/03 02:18:18;;;;;;;35.08;16.38;;;;;;;;;;5070888;28;20079;-68
2023/10/03 02:20:51;;;;;;;42.13;16.70;;;;;;;;;;5068214;28;20040;-68
2023/10/03 02:23:22;;;;;;;37.60;16.63;;;;;;;;;;5078430;28;20056;-68
2023/10/03 02:25:49;;;;;;;33.92;16.45;;;;;;;;;;5077478;28;20112;-68
2023/10/03 02:28:16;;;;;;;32.92;15.27;;;;;;;;;;5073185;28;20364;-68
2023/10/03 02:30:43;;;;;;;35.05;15.43;;;;;;;;;;5076709;28;20043;-68
2023/10/03 02:33:12;;;;;;;39.58;16.90;;;;;;;;;;5061069;28;20052;-68
2023/10/03 02:35:39;;;;;;;36.28;15.68;;;;;;;;;;5079587;28;20782;-68
2023/10/03 02:38:08;;;;;;;35.33;15.95;;;;;;;;;;5079728;28;20402;-68
2023/10/03 02:40:35;;;;;;;31.75;14.43;;;;;;;;;;5075428;28;20076;-68
2023/10/03 02:43:01;;;;;;;38.83;16.02;;;;;;;;;;5075044;28;20040;-68
2023/10/03 02:45:27;;;;;;;36.08;15.80;;;;;;;;;;5074227;28;20561;-68
2023/10/03 02:48:09;;;;;;;35.72;15.23;;;;;;;;;;5073404;28;20029;-68
2023/10/03 02:50:35;;;;;;;35.72;16.10;;;;;;;;;;5072184;28;20075;-68
2023/10/03 02:53:05;;;;;;;37.65;15.73;;;;;;;;;;5082474;28;20083;-68
2023/10/03 02:55:31;;;;;;;36.42;15.50;;;;;;;;;;5073819;28;20033;-68
2023/10/03 02:57:57;;;;;;;36.90;16.58;;;;;;;;;;5073408;28;20044;-68
2023/10/03 03:00:24;;;;;;;40.17;16.02;;;;;;;;;;5077487;28;20513;-68
2023/10/03 03:02:50;;;;;;;39.60;15.30;;;;;;;;;;5077771;28;20490;-68
2023/10/03 03:05:17;;;;;;;35.50;15.32;;;;;;;;;;5073871;28;20045;-68
2023/10/03 03:07:46;;;;;;;40.92;15.73;;;;;;;;;;5074238;28;20024;-68
2023/10/03 03:10:14;;;;;;;34.03;14.80;;;;;;;;;;5073958;28;20038;-68
2023/10/03 03:12:41;;;;;;;37.42;15.25;;;;;;;;;;5071830;28;20394;-68
2023/10/03 03:15:08;;;;;;;36.50;15.10;;;;;;;;;;5079733;28;20056;-68
2023/10/03 03:17:34;;;;;;;34.55;15.43;;;;;;;;;;5076729;28;20036;-68
2023/10/03 03:20:17;;;;;;;35.80;14.68;;;;;;;;;;5077007;28;20080;-68
2023/10/03 03:22:43;;;;;;;35.92;15.40;;;;;;;;;;5070743;28;20076;-68
2023/10/03 03:25:09;;;;;;;39.75;15.82;;;;;;;;;;5080619;28;20113;-68
2023/10/03 03:27:41;;;;;;;43.55;16.10;;;;;;;;;;5079193;28;20490;-68
2023/10/03 03:32:53;;;;;;;34.05;14.45;;;;;;;;;;5083576;28;20036;-68
2023/10/03 03:35:24;;;;;;;36.85;15.82;;;;;;;;;;5074815;28;20525;-68
2023/10/03 03:37:55;;;;;;;;;;;;;;;;;;5071194;28;20040;-68
2023/10/03 03:40:29;;;;;;;38.42;15.93;;;;;;;;;;5071290;28;19916;-68
2023/10/03 03:42:57;;;;;;;34.50;14.98;;;;;;;;;;5076876;28;20054;-68
2023/10/03 03:45:23;;;;;;;36.53;14.75;;;;;;;;;;5079162;28;20585;-68
2023/10/03 03:47:50;;;;;;;35.15;15.30;;;;;;;;;;5070376;28;20119;-68
2023/10/03 03:50:17;;;;;;;37.17;15.88;;;;;;;;;;5077597;28;20047;-68
2023/10/03 03:52:43;;;;;;;35.40;15.10;;;;;;;;;;5082455;28;20082;-68
2023/10/03 03:55:11;;;;;;;37.33;15.02;;;;;;;;;;5083424;28;20127;-68
2023/10/03 03:57:37;;;;;;;33.60;14.73;;;;;;;;;;5071346;28;20044;-68
2023/10/03 04:00:12;;;;;;;33.55;15.10;;;;;;;;;;5075906;28;20390;-68
2023/10/03 04:02:38;;;;;;;37.78;14.85;;;;;;;;;;5071460;28;20051;-68
2023/10/03 04:05:07;;;;;;;33.88;14.70;;;;;;;;;;5076904;28;20545;-68
2023/10/03 04:07:33;;;;;;;34.55;14.40;;;;;;;;;;5075580;28;20051;-68
2023/10/03 04:10:00;;;;;;;37.15;14.02;;;;;;;;;;5082024;28;20086;-68
2023/10/03 04:12:26;;;;;;;33.30;14.90;;;;;;;;;;5080497;28;20036;-68
2023/10/03 04:14:53;;;;;;;36.35;16.20;;;;;;;;;;5076870;28;20055;-68
2023/10/03 04:17:19;;;;;;;36.67;14.88;;;;;;;;;;5072667;28;20063;-68
2023/10/03 04:19:45;;;;;;;36.50;14.05;;;;;;;;;;5073734;28;20509;-68
2023/10/03 04:22:12;;;;;;;37.70;14.00;;;;;;;;;;5070750;28;20040;-68
2023/10/03 04:24:38;;;;;;;32.45;14.35;;;;;;;;;;5077250;28;20047;-68
2023/10/03 04:27:05;;;;;;;35.65;14.27;;;;;;;;;;5077576;28;20040;-68
2023/10/03 04:29:33;;;;;;;37.78;14.43;;;;;;;;;;5081187;28;20040;-68
2023/10/03 04:31:59;;;;;;;33.22;13.85;;;;;;;;;;5075750;28;20120;-68
2023/10/03 04:34:25;;;;;;;35.83;14.02;;;;;;;;;;5079183;28;20131;-68
2023/10/03 04:36:51;;;;;;;33.00;14.48;;;;;;;;;;5079664;28;20044;-68
2023/10/03 04:39:20;;;;;;;35.30;13.55;;;;;;;;;;5075676;28;20043;-68
2023/10/03 04:41:46;;;;;;;33.80;13.38;;;;;;;;;;5084159;28;20040;-68
2023/10/03 04:44:16;;;;;;;35.90;14.70;;;;;;;;;;5069980;28;20045;-68
2023/10/03 04:46:44;;;;;;;34.75;14.25;;;;;;;;;;5066940;28;20090;-68
2023/10/03 04:49:10;;;;;;;31.92;13.07;;;;;;;;;;5057634;28;20044;-68
2023/10/03 04:51:37;;;;;;;32.33;13.40;;;;;;;;;;5055152;28;20701;-68
2023/10/03 04:54:03;;;;;;;32.67;12.65;;;;;;;;;;5068448;28;20044;-68
2023/10/03 04:56:29;;;;;;;33.58;14.00;;;;;;;;;;5072656;28;20466;-68
2023/10/03 04:58:55;;;;;;;30.52;12.90;;;;;;;;;;5064754;28;20075;-67
2023/10/03 05:01:21;;;;;;;30.13;13.02;;;;;;;;;;5076617;28;20036;-67
2023/10/03 05:03:47;;;;;;;32.33;13.48;;;;;;;;;;5066849;28;20071;-67
2023/10/03 05:06:13;;;;;;;29.27;12.20;;;;;;;;;;5070170;28;20037;-67
2023/10/03 05:08:39;;;;;;;30.27;12.25;;;;;;;;;;5073842;28;20036;-68
2023/10/03 05:11:06;;;;;;;28.63;12.35;;;;;;;;;;5070160;28;20514;-68
2023/10/03 05:13:32;;;;;;;28.20;11.95;;;;;;;;;;5070141;28;20394;-68
2023/10/03 05:15:58;;;;;;;29.73;11.82;;;;;;;;;;5069649;28;20037;-68
2023/10/03 05:18:24;;;;;;;29.80;12.73;;;;;;;;;;5069746;28;20501;-68
2023/10/03 05:20:55;;;;;;;30.38;12.73;;;;;;;;;;5073407;28;20059;-68
2023/10/03 05:23:21;;;;;;;25.02;11.40;;;;;;;;;;5078960;28;20174;-68
2023/10/03 05:25:47;;;;;;;26.52;11.05;;;;;;;;;;5083380;28;20123;-68
2023/10/03 05:28:13;;;;;;;30.58;12.45;;;;;;;;;;5084153;28;20043;-68
2023/10/03 05:30:40;;;;;;;27.08;11.88;;;;;;;;;;5087733;28;20028;-68
2023/10/03 05:33:06;;;;;;;28.75;11.13;;;;;;;;;;5083478;28;20048;-68
2023/10/03 05:35:33;;;;;;;25.48;11.23;;;;;;;;;;5072715;28;20047;-68
2023/10/03 05:37:59;;;;;;;23.27;10.38;;;;;;;;;;5070451;28;20086;-68
2023/10/03 05:40:26;;;;;;;23.20;10.55;;;;;;;;;;5051965;28;20036;-68
2023/10/03 05:42:52;;;;;;;28.35;11.20;;;;;;;;;;5076863;28;20040;-68
2023/10/03 05:45:19;;;;;;;26.70;10.50;;;;;;;;;;5080557;28;20405;-68
2023/10/03 05:47:46;;;;;;;22.27;9.80;;;;;;;;;;5070697;28;20044;-68
2023/10/03 05:50:14;;;;;;;21.55;9.43;;;;;;;;;;5077647;28;20441;-68
2023/10/03 05:52:41;;;;;;;24.45;9.48;;;;;;;;;;5073722;28;20032;-68
2023/10/03 05:55:08;;;;;;;24.50;9.63;;;;;;;;;;5071696;28;20782;-68
2023/10/03 05:57:34;;;;;;;24.45;9.35;;;;;;;;;;5071227;28;20059;-68
2023/10/03 06:00:00;;;;;;;20.40;8.68;;;;;;;;;;5071575;28;20056;-68
2023/10/03 06:02:26;;;;;;;24.58;8.77;;;;;;;;;;5077165;28;20068;-68
2023/10/03 06:04:54;;;;;;;18.70;8.38;;;;;;;;;;5073161;28;20036;-68
2023/10/03 06:07:19;;;;;;;18.58;8.30;;;;;;;;;;5073056;28;20068;-68
2023/10/03 06:09:45;;;;;;;22.77;8.18;;;;;;;;;;5077344;28;20058;-68
2023/10/03 06:12:11;;;;;;;15.95;7.30;;;;;;;;;;5074767;28;20059;-68
2023/10/03 06:14:40;;;;;;;17.67;7.07;;;;;;;;;;5073941;28;20510;-68
2023/10/03 06:17:07;;;;;;;18.70;7.28;;;;;;;;;;5072742;28;20509;-68
2023/10/03 06:19:34;;;;;;;17.42;7.63;;;;;;;;;;5080628;28;20107;-68
2023/10/03 06:22:01;;;;;;;17.77;7.05;;;;;;;;;;5073427;28;20483;-68
2023/10/03 06:24:28;;;;;;;14.80;6.43;;;;;;;;;;5073439;28;20490;-68
2023/10/03 06:26:54;;;;;;;16.88;6.28;;;;;;;;;;5078117;28;20094;-68
2023/10/03 06:29:23;;;;;;;20.85;6.50;;;;;;;;;;5072138;28;20094;-68
2023/10/03 06:31:49;;;;;;;17.40;6.25;;;;;;;;;;5077398;28;20040;-68
2023/10/03 06:34:16;;;;;;;16.27;6.43;;;;;;;;;;5079258;28;20418;-68
2023/10/03 06:36:43;;;;;;;12.52;5.68;;;;;;;;;;5068239;28;20624;-69
2023/10/03 06:39:09;;;;;;;18.45;5.28;;;;;;;;;;5071381;28;20044;-68
2023/10/03 06:41:35;;;;;;;14.90;4.70;;;;;;;;;;5088286;22;20048;-70
2023/10/03 06:44:02;;;;;;;20.58;6.45;;;;;;;;;;5048135;28;20048;-70
2023/10/03 06:46:28;;;;;;;15.25;5.68;;;;;;;;;;5068583;28;20506;-70
2023/10/03 06:48:54;;;;;;;13.82;5.93;;;;;;;;;;5052232;28;20076;-70
2023/10/03 06:51:20;;;;;;;12.40;5.20;;;;;;;;;;5052296;28;20580;-70
2023/10/03 06:53:47;;;;;;;15.63;5.03;;;;;;;;;;5051890;28;20045;-70
2023/10/03 06:56:13;;;;;;;13.50;5.15;;;;;;;;;;5034550;28;20517;-70
2023/10/03 06:58:39;;;;;;;13.35;4.30;;;;;;;;;;5052749;28;20045;-69
2023/10/03 07:01:05;;;;;;;14.80;4.50;;;;;;;;;;5050415;28;20522;-69
2023/10/03 07:03:31;;;;;;;12.60;4.68;;;;;;;;;;5047787;28;20041;-69
2023/10/03 07:05:57;;;;;;;16.20;4.25;;;;;;;;;;5051160;28;20056;-70
2023/10/03 07:08:26;;;;;;;12.23;5.22;;;;;;;;;;5048151;28;20044;-70
2023/10/03 07:10:53;;;;;;;15.40;4.30;;;;;;;;;;5033833;28;22195;-70
2023/10/03 07:13:20;;;;;;;16.17;4.07;;;;;;;;;;5049937;28;20506;-70
2023/10/03 07:15:46;;;;;;;11.27;4.68;;;;;;;;;;5033739;28;20087;-70
2023/10/03 07:18:12;;;;;;;13.88;4.32;;;;;;;;;;5033772;28;20145;-70
2023/10/03 07:20:39;;;;;;;11.40;4.03;;;;;;;;;;5048352;28;20076;-70
2023/10/03 07:23:06;;;;;;;15.57;4.32;;;;;;;;;;5051887;28;20165;-70
2023/10/03 07:25:32;;;;;;;13.02;4.28;;;;;;;;;;5051371;28;20127;-70
2023/10/03 07:27:59;;;;;;;12.13;4.35;;;;;;;;;;5046651;28;20167;-70
2023/10/03 07:30:25;;;;;;;10.43;3.90;;;;;;;;;;5049802;28;20037;-70
2023/10/03 07:32:51;;;;;;;9.77;4.32;;;;;;;;;;5034258;28;20045;-70
2023/10/03 07:35:19;;;;;;;13.43;4.60;;;;;;;;;;5052238;28;20420;-70
2023/10/03 07:37:45;;;;;;;12.55;4.03;;;;;;;;;;5032576;28;20041;-70
2023/10/03 07:40:11;;;;;;;11.65;4.35;;;;;;;;;;5050574;28;20063;-70
2023/10/03 07:42:40;;;;;;;13.50;5.20;;;;;;;;;;5051813;28;20045;-70
2023/10/03 07:45:09;;;;;;;11.27;4.90;;;;;;;;;;5052126;28;20037;-70
2023/10/03 07:47:41;;;;;;;12.95;5.00;;;;;;;;;;5049324;28;20083;-70
2023/10/03 07:50:08;;;;;;;10.98;4.55;;;;;;;;;;5050243;28;20543;-70
2023/10/03 07:52:34;;;;;;;9.68;4.70;;;;;;;;;;5033863;28;20095;-70
2023/10/03 07:55:00;;;;;;;11.00;4.85;;;;;;;;;;5052518;28;20053;-70
2023/10/03 07:57:26;;;;;;;14.38;4.88;;;;;;;;;;5050187;28;20475;-70
2023/10/03 07:59:53;;;;;;;11.18;5.13;;;;;;;;;;5051454;28;20433;-70
2023/10/03 08:02:25;;;;;;;12.73;4.55;;;;;;;;;;5049765;28;20210;-70
2023/10/03 08:04:52;;;;;;;14.43;4.45;;;;;;;;;;5031095;28;20071;-70
2023/10/03 08:07:24;;;;;;;16.13;5.15;;;;;;;;;;5026734;28;20055;-70
2023/10/03 08:09:50;;;;;;;12.07;4.07;;;;;;;;;;5049347;28;20121;-70
2023/10/03 08:12:23;;;;;;;15.63;4.07;;;;;;;;;;5048067;28;20124;-70
2023/10/03 08:14:52;;;;;;;12.48;4.40;;;;;;;;;;5050269;28;20090;-70
2023/10/03 08:17:18;;;;;;;10.90;3.95;;;;;;;;;;5050207;28;20056;-70
2023/10/03 08:19:45;;;;;;;9.32;3.88;;;;;;;;;;5050927;28;20047;-70
2023/10/03 08:22:12;;;;;;;9.75;4.10;;;;;;;;;;5047241;28;20041;-70
2023/10/03 08:24:43;;;;;;;8.65;4.32;;;;;;;;;;5051332;28;20072;-70
2023/10/03 08:27:17;;;;;;;10.98;4.47;;;;;;;;;;5050320;28;20049;-70
2023/10/03 08:29:44;;;;;;;12.43;3.97;;;;;;;;;;5042925;28;20068;-70
2023/10/03 08:32:10;;;;;;;11.18;4.57;;;;;;;;;;5048950;28;20110;-70
2023/10/03 08:34:43;;;;;;;8.40;3.60;;;;;;;;;;5045809;28;20132;-70
2023/10/03 08:37:18;;;;;;;6.90;3.65;;;;;;;;;;5045760;28;20044;-70
2023/10/03 08:39:46;;;;;;;10.40;3.47;;;;;;;;;;5039609;28;20098;-70
2023/10/03 08:42:34;;;;;;;8.88;3.80;;;;;;;;;;5048215;28;20036;-70
2023/10/03 08:45:16;;;;;;;8.48;3.38;;;;;;;;;;5046126;28;20119;-70
2023/10/03 08:47:47;;;;;;;10.20;3.17;;;;;;;;;;5028572;28;20052;-70
2023/10/03 08:50:29;;;;;;;9.43;3.42;;;;;;;;;;5047329;28;20104;-70
2023/10/03 08:52:56;;;;;;;5.32;2.40;;;;;;;;;;5045970;28;20044;-70
2023/10/03 08:55:23;;;;;;;9.27;3.28;;;;;;;;;;5049718;28;20044;-70
2023/10/03 08:57:49;;;;;;;8.38;3.00;;;;;;;;;;5049026;28;20069;-70
2023/10/03 09:00:16;;;;;;;9.35;2.25;;;;;;;;;;5053725;28;20402;-70
2023/10/03 09:02:45;;;;;;;6.07;2.60;;;;;;;;;;5055603;28;20044;-70
2023/10/03 09:05:23;;;;;;;7.57;2.33;;;;;;;;;;5054106;28;20119;-70
2023/10/03 09:07:49;;;;;;;8.68;2.13;;;;;;;;;;5053901;28;20044;-70
2023/10/03 09:10:25;;;;;;;7.80;2.03;;;;;;;;;;5055401;28;20380;-70
2023/10/03 09:12:51;;;;;;;8.05;1.92;;;;;;;;;;5047908;28;20120;-70
2023/10/03 09:15:17;;;;;;;9.43;2.20;;;;;;;;;;5052548;28;20037;-70
2023/10/03 09:17:49;;;;;;;6.13;1.70;;;;;;;;;;5053223;28;20698;-70
2023/10/03 09:20:22;;;;;;;6.28;1.58;;;;;;;;;;5051998;28;20518;-70
2023/10/03 09:22:48;;;;;;;4.38;1.27;;;;;;;;;;5037030;28;20067;-70
2023/10/03 09:25:16;;;;;;;7.57;1.40;;;;;;;;;;5054159;28;20376;-70
2023/10/03 09:27:42;;;;;;;6.72;1.33;;;;;;;;;;5034011;28;20041;-71
2023/10/03 09:30:10;;;;;;;4.30;1.48;;;;;;;;;;5054364;28;20036;-71
2023/10/03 09:32:39;;;;;;;7.30;1.65;;;;;;;;;;5037114;28;20061;-71
2023/10/03 09:35:10;;;;;;;5.22;1.10;;;;;;;;;;5052138;28;20394;-71
2023/10/03 09:37:36;;;;;;;4.45;1.08;;;;;;;;;;5053145;28;20041;-71
2023/10/03 09:40:16;;;;;;;3.78;1.40;;;;;;;;;;5052529;28;20037;-71
2023/10/03 09:42:48;;;;;;;7.30;1.33;;;;;;;;;;5048267;28;20099;-71
2023/10/03 09:45:17;;;;;;;4.80;1.30;;;;;;;;;;5053204;28;20126;-71
2023/10/03 09:47:43;;;;;;;4.53;1.02;;;;;;;;;;5044686;28;20040;-70
2023/10/03 09:50:09;;;;;;;2.83;0.68;;;;;;;;;;5053791;28;20072;-71
2023/10/03 09:52:39;;;;;;;4.80;0.80;;;;;;;;;;5053958;28;20049;-71
2023/10/03 09:55:20;;;;;;;3.22;0.68;;;;;;;;;;5053283;28;20128;-71
2023/10/03 09:57:51;;;;;;;2.63;0.52;;;;;;;;;;5052085;28;20041;-71
2023/10/03 10:00:25;;;;;;;;;;;;;;;;;;5053514;28;20526;-71
2023/10/03 10:02:55;;;;;;;4.03;0.50;;;;;;;;;;5051458;28;19959;-71
2023/10/03 10:05:22;;;;;;;4.70;0.60;;;;;;;;;;5051901;28;20049;-71
2023/10/03 10:08:08;;;;;;;3.45;0.60;;;;;;;;;;5035603;28;20045;-71
2023/10/03 10:10:35;;;;;;;3.17;0.57;;;;;;;;;;5052714;28;20068;-71
2023/10/03 10:13:20;;;;;;;4.32;0.80;;;;;;;;;;5051105;28;20048;-71
2023/10/03 10:16:07;;;;;;;6.20;0.60;;;;;;;;;;5046106;28;20373;-71
2023/10/03 10:18:45;;;;;;;6.30;1.27;;;;;;;;;;5051685;28;20127;-71
2023/10/03 10:21:20;;;;;;;4.13;0.55;;;;;;;;;;5035751;28;20033;-71
2023/10/03 10:24:05;;;;;;;3.10;0.45;;;;;;;;;;5043341;28;20124;-71
2023/10/03 10:26:31;;;;;;;4.03;0.75;;;;;;;;;;5048449;28;20037;-71
2023/10/03 10:29:05;;;;;;;2.97;0.43;;;;;;;;;;5052746;28;20102;-71
2023/10/03 10:31:42;;;;;;;2.75;0.93;;;;;;;;;;5036096;28;20040;-71
2023/10/03 10:34:20;;;;;;;3.55;0.47;;;;;;;;;;5049190;28;20449;-71
2023/10/03 10:37:09;;;;;;;1.77;0.40;;;;;;;;;;5048889;28;20049;-71
2023/10/03 10:39:54;;;;;;;1.92;0.40;;;;;;;;;;5031784;28;20064;-71
2023/10/03 10:42:26;;;;;;;1.58;0.38;;;;;;;;;;5051853;28;20037;-71
2023/10/03 10:45:13;;;;;;;2.75;0.65;;;;;;;;;;5031507;28;20041;-71
2023/10/03 10:47:46;;;;;;;1.50;0.43;;;;;;;;;;5051179;28;20041;-71
2023/10/03 10:50:12;;;;;;;2.47;0.60;;;;;;;;;;5030739;28;20485;-71
2023/10/03 10:52:57;;;;;;;2.00;0.50;;;;;;;;;;5046555;28;20102;-71
2023/10/03 10:55:24;;;;;;;5.00;0.65;;;;;;;;;;5045133;28;20490;-71
2023/10/03 10:58:12;;;;;;;3.17;0.40;;;;;;;;;;5052218;28;20037;-71
2023/10/03 11:00:39;;;;;;;3.47;0.60;;;;;;;;;;5052278;28;20051;-72
2023/10/03 11:03:06;;;;;;;3.85;0.63;;;;;;;;;;5045293;28;20103;-72
2023/10/03 11:05:42;;;;;;;1.90;0.32;;;;;;;;;;5040172;28;20053;-71
2023/10/03 11:08:08;;;;;;;5.00;0.60;;;;;;;;;;5052569;28;20040;-71
2023/10/03 11:10:34;;;;;;;2.63;0.63;;;;;;;;;;5051441;28;20483;-71
2023/10/03 11:13:03;;;;;;;1.45;0.52;;;;;;;;;;5046040;28;20040;-71
2023/10/03 11:15:29;;;;;;;2.90;0.40;;;;;;;;;;5040607;28;20479;-71
2023/10/03 11:17:58;;;;;;;2.03;0.50;;;;;;;;;;5050368;28;20045;-71
2023/10/03 11:20:24;;;;;;;2.60;0.50;;;;;;;;;;5046261;28;20093;-71
2023/10/03 11:22:50;;;;;;;4.18;0.90;;;;;;;;;;5042516;28;20040;-72
2023/10/03 11:25:19;;;;;;;3.80;0.90;;;;;;;;;;5025285;28;20049;-72
2023/10/03 11:27:46;;;;;;;2.10;0.70;;;;;;;;;;5042566;28;20044;-71
2023/10/03 11:30:15;;;;;;;5.88;0.95;;;;;;;;;;5041521;28;20059;-71
2023/10/03 11:32:41;;;;;;;4.55;1.30;;;;;;;;;;5043273;28;20045;-71
2023/10/03 11:35:14;;;;;;;4.57;1.30;;;;;;;;;;5042395;28;20664;-71
2023/10/03 11:37:44;;;;;;;5.57;0.88;;;;;;;;;;5044310;28;20044;-71
2023/10/03 11:40:20;;;;;;;5.25;1.02;;;;;;;;;;5048505;28;20045;-71
2023/10/03 11:42:47;;;;;;;2.92;1.23;;;;;;;;;;5042766;28;20041;-71
2023/10/03 11:45:23;;;;;;;4.53;0.90;;;;;;;;;;5044142;28;20503;-71
2023/10/03 11:47:59;;;;;;;3.65;1.13;;;;;;;;;;5047109;28;20060;-71
2023/10/03 11:50:25;;;;;;;4.00;1.20;;;;;;;;;;5043143;28;20041;-71
2023/10/03 11:52:51;;;;;;;9.27;1.10;;;;;;;;;;5038724;28;20492;-71
2023/10/03 11:55:19;;;;;;;4.32;1.10;;;;;;;;;;5036652;28;20033;-71
2023/10/03 11:57:45;;;;;;;4.80;1.33;;;;;;;;;;5046810;28;20112;-71
2023/10/03 12:00:14;;;;;;;5.22;0.98;;;;;;;;;;5045667;28;20076;-71
2023/10/03 12:02:45;;;;;;;3.08;0.98;;;;;;;;;;5047364;28;20484;-70
2023/10/03 12:05:11;;;;;;;4.07;0.80;;;;;;;;;;5030753;28;20049;-71
2023/10/03 12:07:39;;;;;;;3.85;1.10;;;;;;;;;;5041560;28;20505;-71
2023/10/03 12:10:05;;;;;;;3.92;0.85;;;;;;;;;;5048185;28;20087;-71
2023/10/03 12:12:32;;;;;;;2.95;0.98;;;;;;;;;;5046726;28;20037;-71
2023/10/03 12:14:58;;;;;;;3.40;0.90;;;;;;;;;;5037483;28;20040;-71
2023/10/03 12:17:24;;;;;;;3.47;0.88;;;;;;;;;;5041256;28;20120;-71
2023/10/03 12:19:50;;;;;;;3.45;1.00;;;;;;;;;;5042508;28;20036;-71
2023/10/03 12:22:16;;;;;;;3.13;1.25;;;;;;;;;;5051222;28;20037;-71
2023/10/03 12:24:42;;;;;;;3.33;1.10;;;;;;;;;;5049354;28;20045;-71
2023/10/03 12:27:07;;;;;;;2.60;1.30;;;;;;;;;;5044705;28;20090;-71
2023/10/03 12:29:33;;;;;;;3.80;1.30;;;;;;;;;;5050892;28;20125;-71
2023/10/03 12:32:01;;;;;;;4.03;1.77;;;;;;;;;;5051752;28;20482;-71
2023/10/03 12:34:29;;;;;;;4.45;1.50;;;;;;;;;;5048526;28;20073;-70
2023/10/03 12:36:55;;;;;;;5.07;1.45;;;;;;;;;;5048256;28;20053;-70
2023/10/03 12:39:24;;;;;;;4.25;1.50;;;;;;;;;;5049108;28;20044;-70
2023/10/03 12:41:51;;;;;;;3.33;1.58;;;;;;;;;;5072268;23;20083;-63
2023/10/03 12:44:17;;;;;;;4.72;1.58;;;;;;;;;;5069918;28;20055;-63
2023/10/03 12:46:43;;;;;;;6.28;1.60;;;;;;;;;;5093106;22;20044;-62
2023/10/03 12:49:09;;;;;;;4.18;1.67;;;;;;;;;;5074649;28;20150;-62
2023/10/03 12:51:35;;;;;;;6.30;1.80;;;;;;;;;;5058362;28;20049;-62
2023/10/03 12:54:04;;;;;;;6.03;1.90;;;;;;;;;;5053371;28;20105;-62
2023/10/03 12:56:30;;;;;;;9.32;2.92;;;;;;;;;;5076315;28;20576;-62
2023/10/03 12:58:57;;;;;;;4.15;1.42;;;;;;;;;;5047979;28;20159;-62
2023/10/03 13:01:23;;;;;;;5.55;1.70;;;;;;;;;;5035976;28;20063;-64
2023/10/03 13:03:49;;;;;;;6.47;2.10;;;;;;;;;;5064017;28;20032;-64
2023/10/03 13:06:15;;;;;;;5.63;1.92;;;;;;;;;;5059765;28;20041;-64
2023/10/03 13:08:42;;;;;;;6.03;1.70;;;;;;;;;;5045091;28;20072;-64
2023/10/03 13:11:08;;;;;;;5.38;1.77;;;;;;;;;;5052536;28;20037;-64
2023/10/03 13:13:35;;;;;;;5.65;1.85;;;;;;;;;;5066121;28;20041;-64
2023/10/03 13:16:01;;;;;;;7.13;2.42;;;;;;;;;;5056471;28;20454;-64
2023/10/03 13:18:27;;;;;;;6.55;2.22;;;;;;;;;;5060921;28;20048;-64
2023/10/03 13:20:53;;;;;;;4.50;1.70;;;;;;;;;;5046993;28;20100;-64
2023/10/03 13:23:19;;;;;;;5.38;2.08;;;;;;;;;;5064166;28;20037;-64
2023/10/03 13:25:46;;;;;;;9.50;1.88;;;;;;;;;;5041105;28;20045;-64
2023/10/03 13:28:13;;;;;;;6.00;2.08;;;;;;;;;;5049046;28;20040;-63
2023/10/03 13:30:39;;;;;;;6.28;2.30;;;;;;;;;;5045302;28;20393;-64
2023/10/03 13:33:05;;;;;;;8.00;1.73;;;;;;;;;;5067649;28;20508;-64
2023/10/03 13:35:33;;;;;;;6.50;1.83;;;;;;;;;;5062504;28;20090;-64
2023/10/03 13:37:59;;;;;;;4.68;1.58;;;;;;;;;;5045302;28;20391;-64
2023/10/03 13:40:26;;;;;;;6.35;2.17;;;;;;;;;;5043986;28;20053;-64
2023/10/03 13:42:52;;;;;;;5.82;1.90;;;;;;;;;;5063990;28;20131;-65
2023/10/03 13:45:19;;;;;;;7.53;2.05;;;;;;;;;;5066362;28;20033;-65
2023/10/03 13:47:45;;;;;;;6.50;1.92;;;;;;;;;;5065422;28;20041;-64
2023/10/03 13:50:12;;;;;;;8.57;1.90;;;;;;;;;;5049628;28;20064;-64
2023/10/03 13:52:39;;;;;;;9.85;1.98;;;;;;;;;;5067810;28;20512;-65
2023/10/03 13:55:06;;;;;;;6.30;2.33;;;;;;;;;;5054707;28;20106;-65
2023/10/03 13:57:33;;;;;;;4.65;1.80;;;;;;;;;;5054717;28;20447;-64
2023/10/03 14:00:00;;;;;;;7.88;2.38;;;;;;;;;;5019241;28;20443;-64
2023/10/03 14:02:26;;;;;;;8.57;2.00;;;;;;;;;;5048197;28;20032;-64
2023/10/03 14:04:52;;;;;;;6.72;2.17;;;;;;;;;;5051150;28;20048;-64
2023/10/03 14:07:18;;;;;;;8.98;1.98;;;;;;;;;;5046623;28;20040;-64
2023/10/03 14:09:45;;;;;;;8.10;1.75;;;;;;;;;;5067742;28;20408;-64
2023/10/03 14:12:11;;;;;;;8.55;1.63;;;;;;;;;;5047103;28;20048;-64
2023/10/03 14:14:37;;;;;;;6.85;1.80;;;;;;;;;;5068803;28;20071;-64
2023/10/03 14:17:03;;;;;;;5.93;2.38;;;;;;;;;;5048761;28;20484;-64
2023/10/03 14:19:34;;;;;;;5.32;2.22;;;;;;;;;;5049973;28;20050;-64
2023/10/03 14:22:02;;;;;;;5.95;1.63;;;;;;;;;;5044746;28;20165;-64
2023/10/03 14:24:28;;;;;;;8.02;2.03;;;;;;;;;;5064732;28;20085;-64
2023/10/03 14:26:54;;;;;;;7.32;2.13;;;;;;;;;;5068193;28;20044;-64
2023/10/03 14:29:20;;;;;;;9.00;1.92;;;;;;;;;;5052303;28;20040;-64
2023/10/03 14:31:47;;;;;;;6.82;1.88;;;;;;;;;;5069019;28;20094;-64
2023/10/03 14:34:14;;;;;;;7.22;1.70;;;;;;;;;;5049723;28;20097;-64
2023/10/03 14:36:40;;;;;;;9.73;1.70;;;;;;;;;;5070765;28;20040;-64
2023/10/03 14:39:13;;;;;;;12.23;2.40;;;;;;;;;;5070140;28;20032;-64